Time;durP1;ratioP1;P1;durP2;ratioP2;P2;SDS_P1;SDS_P2;PMS_P1;PMS_P2;Temp;Humidity;BMP_temperature;BMP_pressure;BME280_temperature;BME280_humidity;BME280_pressure;Samples;Min_cycle;Max_cycle;Signal;HPM_P1;HPM_P2
2023/05/28 00:02:24;;;;;;;;;;;20.40;42.40;;;;;;5089533;28;19924;-58
2023/05/28 00:04:51;;;;;;;;;;;20.40;42.40;;;;;;5086243;28;19932;-58
2023/05/28 00:07:21;;;;;;;;;;;20.40;42.40;;;;;;5088126;28;19924;-58
2023/05/28 00:09:48;;;;;;;;;;;20.40;42.40;;;;;;5088424;28;19927;-58
2023/05/28 00:12:17;;;;;;;;;;;20.40;42.50;;;;;;5103182;28;19920;-58
2023/05/28 00:14:44;;;;;;;;;;;20.40;42.50;;;;;;5088172;28;19927;-58
2023/05/28 00:17:11;;;;;;;;;;;20.40;42.50;;;;;;5088627;28;19920;-58
2023/05/28 00:19:37;;;;;;;;;;;20.40;42.50;;;;;;5088775;28;19921;-58
2023/05/28 00:22:04;;;;;;;;;;;20.40;42.50;;;;;;5086124;28;19932;-57
2023/05/28 00:24:31;;;;;;;;;;;20.40;42.50;;;;;;5088724;28;20041;-58
2023/05/28 00:26:57;;;;;;;;;;;20.40;42.50;;;;;;5086215;28;19920;-58
2023/05/28 00:29:27;;;;;;;;;;;20.40;42.50;;;;;;5089423;28;20001;-58
2023/05/28 00:31:55;;;;;;;;;;;20.40;42.60;;;;;;5088335;28;19966;-58
2023/05/28 00:34:23;;;;;;;;;;;20.40;42.70;;;;;;5105382;28;19920;-58
2023/05/28 00:36:49;;;;;;;;;;;20.40;42.80;;;;;;5087340;28;19924;-55
2023/05/28 00:39:16;;;;;;;;;;;20.40;42.70;;;;;;5102653;28;19928;-58
2023/05/28 00:41:43;;;;;;;;;;;20.40;42.80;;;;;;5088136;28;20388;-58
2023/05/28 00:44:10;;;;;;;;;;;20.40;42.80;;;;;;5084837;28;19924;-58
2023/05/28 00:46:38;;;;;;;;;;;20.40;42.80;;;;;;5088637;28;19931;-58
2023/05/28 00:49:05;;;;;;;;;;;20.40;42.90;;;;;;5105487;28;20307;-58
2023/05/28 00:51:32;;;;;;;;;;;20.40;42.80;;;;;;5105316;28;19924;-58
2023/05/28 00:53:59;;;;;;;;;;;20.40;42.90;;;;;;5086959;28;19950;-58
2023/05/28 00:56:26;;;;;;;;;;;20.40;42.90;;;;;;5105568;28;19993;-58
2023/05/28 00:58:53;;;;;;;;;;;20.40;42.90;;;;;;5085812;28;19924;-58
2023/05/28 01:01:20;;;;;;;;;;;20.40;43.00;;;;;;5089597;28;19927;-58
2023/05/28 01:03:49;;;;;;;;;;;20.40;42.90;;;;;;5088968;28;19931;-58
2023/05/28 01:06:15;;;;;;;;;;;20.40;43.00;;;;;;5105222;28;19974;-57
2023/05/28 01:08:42;;;;;;;;;;;20.40;42.90;;;;;;5088831;28;19920;-58
2023/05/28 01:11:11;;;;;;;;;;;20.40;43.00;;;;;;5085273;28;19920;-58
2023/05/28 01:13:38;;;;;;;;;;;20.40;43.00;;;;;;5102660;28;19924;-58
2023/05/28 01:16:05;;;;;;;;;;;20.40;43.10;;;;;;5083245;28;19924;-58
2023/05/28 01:18:32;;;;;;;;;;;20.40;43.10;;;;;;5087832;28;20322;-58
2023/05/28 01:21:01;;;;;;;;;;;20.40;43.10;;;;;;5088000;28;19969;-57
2023/05/28 01:23:28;;;;;;;;;;;20.40;43.20;;;;;;5104884;28;19920;-58
2023/05/28 01:25:56;;;;;;;;;;;20.40;43.20;;;;;;5104367;28;19924;-58
2023/05/28 01:28:23;;;;;;;;;;;20.30;43.10;;;;;;5103886;28;19920;-58
2023/05/28 01:30:50;;;;;;;;;;;20.40;43.20;;;;;;5099906;28;19939;-58
2023/05/28 01:33:18;;;;;;;;;;;20.40;43.10;;;;;;5087262;28;19931;-58
2023/05/28 01:35:45;;;;;;;;;;;20.30;43.10;;;;;;5104699;28;20288;-58
2023/05/28 01:38:12;;;;;;;;;;;20.30;43.10;;;;;;5104866;28;20023;-58
2023/05/28 01:40:40;;;;;;;;;;;20.40;43.10;;;;;;5104516;28;20000;-58
2023/05/28 01:43:08;;;;;;;;;;;20.30;43.00;;;;;;5086522;28;19927;-58
2023/05/28 01:45:35;;;;;;;;;;;20.30;43.00;;;;;;5086288;28;19924;-58
2023/05/28 01:48:02;;;;;;;;;;;20.30;43.10;;;;;;5102013;28;19930;-58
2023/05/28 01:50:30;;;;;;;;;;;20.30;43.10;;;;;;5104400;28;20371;-58
2023/05/28 01:53:00;;;;;;;;;;;20.30;43.10;;;;;;5088277;28;19920;-58
2023/05/28 01:55:27;;;;;;;;;;;20.30;43.20;;;;;;5087843;28;19969;-58
2023/05/28 01:57:53;;;;;;;;;;;20.30;43.20;;;;;;5086768;28;19920;-59
2023/05/28 02:00:23;;;;;;;;;;;20.30;43.20;;;;;;5103350;28;19926;-58
2023/05/28 02:02:50;;;;;;;;;;;20.30;43.20;;;;;;5087085;28;19932;-58
2023/05/28 02:05:17;;;;;;;;;;;20.30;43.20;;;;;;5087603;28;19978;-58
2023/05/28 02:07:43;;;;;;;;;;;20.30;43.20;;;;;;5087154;28;19970;-58
2023/05/28 02:10:11;;;;;;;;;;;20.30;43.80;;;;;;5087545;28;19920;-58
2023/05/28 02:12:38;;;;;;;;;;;20.30;43.30;;;;;;5087035;28;19924;-58
2023/05/28 02:15:05;;;;;;;;;;;20.30;43.30;;;;;;5088406;28;19997;-58
2023/05/28 02:17:33;;;;;;;;;;;20.30;43.30;;;;;;5101806;28;19924;-59
2023/05/28 02:20:00;;;;;;;;;;;20.30;43.40;;;;;;5086494;28;19969;-59
2023/05/28 02:22:26;;;;;;;;;;;20.30;43.40;;;;;;5103763;28;19996;-58
2023/05/28 02:24:53;;;;;;;;;;;20.30;43.30;;;;;;5103573;28;19928;-58
2023/05/28 02:27:20;;;;;;;;;;;20.30;43.40;;;;;;5088460;28;19939;-58
2023/05/28 02:29:47;;;;;;;;;;;20.30;43.30;;;;;;5088095;28;19924;-58
2023/05/28 02:32:14;;;;;;;;;;;20.30;43.30;;;;;;5087276;28;20305;-58
2023/05/28 02:34:42;;;;;;;;;;;20.30;43.30;;;;;;5086128;28;19924;-58
2023/05/28 02:37:09;;;;;;;;;;;20.30;43.40;;;;;;5086967;28;19969;-57
2023/05/28 02:39:35;;;;;;;;;;;20.30;43.30;;;;;;5090068;28;19924;-58
2023/05/28 02:42:02;;;;;;;;;;;20.30;43.30;;;;;;5091867;28;19977;-58
2023/05/28 02:44:29;;;;;;;;;;;20.30;43.20;;;;;;5091968;28;19939;-57
2023/05/28 02:46:56;;;;;;;;;;;20.30;43.30;;;;;;5091178;28;20352;-58
2023/05/28 02:49:23;;;;;;;;;;;20.30;43.20;;;;;;5089622;28;19998;-58
2023/05/28 02:51:51;;;;;;;;;;;20.30;43.30;;;;;;5090240;28;19963;-57
2023/05/28 02:54:18;;;;;;;;;;;20.30;43.30;;;;;;5107485;28;19924;-57
2023/05/28 02:56:45;;;;;;;;;;;20.30;43.30;;;;;;5090030;28;19924;-57
2023/05/28 02:59:11;;;;;;;;;;;20.30;43.30;;;;;;5107282;28;19924;-57
2023/05/28 03:01:38;;;;;;;;;;;20.30;43.30;;;;;;5090117;28;19922;-58
2023/05/28 03:04:05;;;;;;;;;;;20.30;43.30;;;;;;5089191;28;19924;-57
2023/05/28 03:06:33;;;;;;;;;;;20.30;43.30;;;;;;5106378;28;19931;-58
2023/05/28 03:09:01;;;;;;;;;;;20.30;43.30;;;;;;5106795;28;20101;-58
2023/05/28 03:11:28;;;;;;;;;;;20.30;43.20;;;;;;5091189;28;20316;-57
2023/05/28 03:13:55;;;;;;;;;;;20.30;43.20;;;;;;5090634;28;19939;-58
2023/05/28 03:16:21;;;;;;;;;;;20.30;43.30;;;;;;5091681;28;19966;-57
2023/05/28 03:18:48;;;;;;;;;;;20.30;43.20;;;;;;5089075;28;19935;-58
2023/05/28 03:21:15;;;;;;;;;;;20.30;43.20;;;;;;5103360;28;20405;-58
2023/05/28 03:23:42;;;;;;;;;;;20.30;43.20;;;;;;5089638;28;19924;-58
2023/05/28 03:26:10;;;;;;;;;;;20.30;43.20;;;;;;5106914;28;20525;-58
2023/05/28 03:28:36;;;;;;;;;;;20.30;43.80;;;;;;5106923;28;19924;-58
2023/05/28 03:31:03;;;;;;;;;;;20.30;43.10;;;;;;5089282;28;20336;-58
2023/05/28 03:33:30;;;;;;;;;;;20.30;43.20;;;;;;5090906;28;19927;-58
2023/05/28 03:35:57;;;;;;;;;;;20.30;43.20;;;;;;5089320;28;19924;-58
2023/05/28 03:38:24;;;;;;;;;;;20.30;43.20;;;;;;5088217;28;19965;-58
2023/05/28 03:40:50;;;;;;;;;;;20.30;43.20;;;;;;5090996;28;20005;-58
2023/05/28 03:43:18;;;;;;;;;;;20.30;43.20;;;;;;5106650;28;20278;-58
2023/05/28 03:45:45;;;;;;;;;;;20.30;43.20;;;;;;5089261;28;20317;-58
2023/05/28 03:48:12;;;;;;;;;;;20.30;43.20;;;;;;5106333;28;19927;-58
2023/05/28 03:50:39;;;;;;;;;;;20.30;43.30;;;;;;5088977;28;19924;-59
2023/05/28 03:53:06;;;;;;;;;;;20.30;43.20;;;;;;5105909;28;19928;-58
2023/05/28 03:55:35;;;;;;;;;;;20.30;43.30;;;;;;5088247;28;19924;-58
2023/05/28 03:58:01;;;;;;;;;;;20.30;43.20;;;;;;5083890;28;19959;-58
2023/05/28 04:00:29;;;;;;;;;;;20.30;43.20;;;;;;5088978;28;19924;-58
2023/05/28 04:02:56;;;;;;;;;;;20.30;43.20;;;;;;5105247;28;19967;-58
2023/05/28 04:05:24;;;;;;;;;;;20.30;43.20;;;;;;5086909;28;20013;-58
2023/05/28 04:07:51;;;;;;;;;;;20.30;43.20;;;;;;5089253;28;20294;-57
2023/05/28 04:10:17;;;;;;;;;;;20.30;43.20;;;;;;5088185;28;19970;-57
2023/05/28 04:12:44;;;;;;;;;;;20.30;43.20;;;;;;5088984;28;19920;-58
2023/05/28 04:15:11;;;;;;;;;;;20.30;43.10;;;;;;5106024;28;20025;-59
2023/05/28 04:17:39;;;;;;;;;;;20.30;43.10;;;;;;5088822;28;19927;-58
2023/05/28 04:20:07;;;;;;;;;;;20.30;43.20;;;;;;5089242;28;19993;-58
2023/05/28 04:22:34;;;;;;;;;;;20.30;43.20;;;;;;5089988;28;19969;-58
2023/05/28 04:25:01;;;;;;;;;;;20.30;43.20;;;;;;5105952;28;19920;-59
2023/05/28 04:27:28;;;;;;;;;;;20.30;43.20;;;;;;5088142;28;19960;-58
2023/05/28 04:29:56;;;;;;;;;;;20.30;43.20;;;;;;5088364;28;20455;-59
2023/05/28 04:32:23;;;;;;;;;;;20.30;43.20;;;;;;5090264;28;19924;-59
2023/05/28 04:34:53;;;;;;;;;;;20.30;43.20;;;;;;5088687;28;20373;-59
2023/05/28 04:37:20;;;;;;;;;;;20.30;43.30;;;;;;5090110;28;20324;-58
2023/05/28 04:39:46;;;;;;;;;;;20.30;43.30;;;;;;5105463;28;19959;-58
2023/05/28 04:42:16;;;;;;;;;;;20.30;43.50;;;;;;5088843;28;20391;-58
2023/05/28 04:44:46;;;;;;;;;;;20.30;43.50;;;;;;5087119;28;19985;-58
2023/05/28 04:47:12;;;;;;;;;;;20.30;43.60;;;;;;5089893;28;19924;-58
2023/05/28 04:49:40;;;;;;;;;;;20.30;43.60;;;;;;5089710;28;19963;-58
2023/05/28 04:52:08;;;;;;;;;;;20.30;43.60;;;;;;5088461;28;19981;-58
2023/05/28 04:54:35;;;;;;;;;;;20.30;43.70;;;;;;5088316;28;19920;-57
2023/05/28 04:57:04;;;;;;;;;;;20.30;43.50;;;;;;5105254;28;20002;-58
2023/05/28 04:59:31;;;;;;;;;;;20.30;43.60;;;;;;5105210;28;19920;-58
2023/05/28 05:01:58;;;;;;;;;;;20.30;43.60;;;;;;5083373;28;19932;-57
2023/05/28 05:04:25;;;;;;;;;;;20.30;43.70;;;;;;5105309;28;19920;-57
2023/05/28 05:06:51;;;;;;;;;;;20.30;43.70;;;;;;5088122;28;20005;-57
2023/05/28 05:09:20;;;;;;;;;;;20.30;43.80;;;;;;5105098;28;19970;-58
2023/05/28 05:11:47;;;;;;;;;;;20.30;43.70;;;;;;5087874;28;19931;-57
2023/05/28 05:14:14;;;;;;;;;;;20.20;43.60;;;;;;5087863;28;20011;-57
2023/05/28 05:16:41;;;;;;;;;;;20.30;43.80;;;;;;5088132;28;19995;-57
2023/05/28 05:19:10;;;;;;;;;;;20.30;43.80;;;;;;5101068;28;19920;-57
2023/05/28 05:21:37;;;;;;;;;;;20.30;43.80;;;;;;5088109;28;19985;-58
2023/05/28 05:24:04;;;;;;;;;;;20.30;43.80;;;;;;5089009;28;19927;-58
2023/05/28 05:26:32;;;;;;;;;;;20.30;43.70;;;;;;5089256;28;19920;-58
2023/05/28 05:28:59;;;;;;;;;;;20.30;43.80;;;;;;5104514;28;19985;-58
2023/05/28 05:31:26;;;;;;;;;;;20.30;43.70;;;;;;5089018;28;19920;-58
2023/05/28 05:33:52;;;;;;;;;;;20.30;43.80;;;;;;5084814;28;19973;-58
2023/05/28 05:36:21;;;;;;;;;;;20.30;43.70;;;;;;5088057;28;19947;-58
2023/05/28 05:38:48;;;;;;;;;;;20.30;43.60;;;;;;5104161;28;19959;-58
2023/05/28 05:41:15;;;;;;;;;;;20.30;43.60;;;;;;5104692;28;20019;-58
2023/05/28 05:43:43;;;;;;;;;;;20.30;43.60;;;;;;5104321;28;19969;-58
2023/05/28 05:46:10;;;;;;;;;;;20.30;43.50;;;;;;5089069;28;20266;-58
2023/05/28 05:48:36;;;;;;;;;;;20.30;43.50;;;;;;5088960;28;20009;-58
2023/05/28 05:51:03;;;;;;;;;;;20.30;43.60;;;;;;5088609;28;19953;-58
2023/05/28 05:53:30;;;;;;;;;;;20.30;43.60;;;;;;5085123;28;19920;-58
2023/05/28 05:55:57;;;;;;;;;;;20.30;43.50;;;;;;5103067;28;19935;-58
2023/05/28 05:58:24;;;;;;;;;;;20.30;43.50;;;;;;5086461;28;19924;-58
2023/05/28 06:00:52;;;;;;;;;;;20.30;43.50;;;;;;5086304;28;19932;-58
2023/05/28 06:03:19;;;;;;;;;;;20.30;43.50;;;;;;5086579;28;20320;-58
2023/05/28 06:05:46;;;;;;;;;;;20.30;43.50;;;;;;5087424;28;19936;-58
2023/05/28 06:08:13;;;;;;;;;;;20.30;43.50;;;;;;5101812;28;19977;-58
2023/05/28 06:10:40;;;;;;;;;;;20.30;43.60;;;;;;5100570;28;19932;-58
2023/05/28 06:13:07;;;;;;;;;;;20.30;43.70;;;;;;5089161;28;20000;-58
2023/05/28 06:15:34;;;;;;;;;;;20.30;43.80;;;;;;5090611;28;19923;-57
2023/05/28 06:18:03;;;;;;;;;;;20.30;43.70;;;;;;5090546;28;20281;-58
2023/05/28 06:20:30;;;;;;;;;;;20.30;43.70;;;;;;5107561;28;19920;-58
2023/05/28 06:22:57;;;;;;;;;;;20.30;43.80;;;;;;5090119;28;19924;-58
2023/05/28 06:25:24;;;;;;;;;;;20.30;44.00;;;;;;5104909;28;19920;-57
2023/05/28 06:27:52;;;;;;;;;;;20.30;44.10;;;;;;5091593;28;19979;-57
2023/05/28 06:30:19;;;;;;;;;;;20.30;44.00;;;;;;5107281;28;19920;-57
2023/05/28 06:32:45;;;;;;;;;;;20.30;44.10;;;;;;5105159;28;19965;-58
2023/05/28 06:35:14;;;;;;;;;;;20.30;44.40;;;;;;5091741;28;19962;-59
2023/05/28 06:37:41;;;;;;;;;;;20.30;44.60;;;;;;5104892;28;19924;-58
2023/05/28 06:40:10;;;;;;;;;;;20.30;44.70;;;;;;5089953;28;20048;-59
2023/05/28 06:42:36;;;;;;;;;;;20.30;44.80;;;;;;5090176;28;19924;-58
2023/05/28 06:45:03;;;;;;;;;;;20.30;44.90;;;;;;5089637;28;20015;-57
2023/05/28 06:47:30;;;;;;;;;;;20.30;45.00;;;;;;5104938;28;20023;-57
2023/05/28 06:49:57;;;;;;;;;;;20.30;45.10;;;;;;5089452;28;19997;-57
2023/05/28 06:52:25;;;;;;;;;;;20.30;45.00;;;;;;5107113;28;19924;-57
2023/05/28 06:54:52;;;;;;;;;;;20.30;45.00;;;;;;5090006;28;19949;-58
2023/05/28 06:57:19;;;;;;;;;;;20.20;44.80;;;;;;5090609;28;20007;-57
2023/05/28 06:59:46;;;;;;;;;;;20.20;44.80;;;;;;5086528;28;20593;-58
2023/05/28 07:02:13;;;;;;;;;;;20.30;44.80;;;;;;5087215;28;19924;-58
2023/05/28 07:04:40;;;;;;;;;;;20.30;44.70;;;;;;5089836;28;19920;-58
2023/05/28 07:07:07;;;;;;;;;;;20.20;44.60;;;;;;5090861;28;19920;-58
2023/05/28 07:09:35;;;;;;;;;;;20.30;44.70;;;;;;5107678;28;19950;-58
2023/05/28 07:12:02;;;;;;;;;;;20.20;44.80;;;;;;5107258;28;20274;-59
2023/05/28 07:14:29;;;;;;;;;;;20.30;45.00;;;;;;5088496;28;19939;-57
2023/05/28 07:16:56;;;;;;;;;;;20.30;45.10;;;;;;5105573;28;19920;-59
2023/05/28 07:19:23;;;;;;;;;;;20.30;45.20;;;;;;5091431;28;20320;-59
2023/05/28 07:21:50;;;;;;;;;;;20.30;45.30;;;;;;5091353;28;19927;-58
2023/05/28 07:24:16;;;;;;;;;;;20.30;45.30;;;;;;5089179;28;19963;-59
2023/05/28 07:26:45;;;;;;;;;;;20.30;45.50;;;;;;5089848;28;19920;-58
2023/05/28 07:29:13;;;;;;;;;;;20.20;45.40;;;;;;5106614;28;19947;-58
2023/05/28 07:31:39;;;;;;;;;;;20.20;45.30;;;;;;5088439;28;19920;-58
2023/05/28 07:34:06;;;;;;;;;;;20.20;45.30;;;;;;5085711;28;20014;-58
2023/05/28 07:36:34;;;;;;;;;;;20.20;45.20;;;;;;5107282;28;19920;-59
2023/05/28 07:39:01;;;;;;;;;;;20.20;45.20;;;;;;5091112;28;19924;-59
2023/05/28 07:41:27;;;;;;;;;;;20.20;45.10;;;;;;5107121;28;20329;-59
2023/05/28 07:43:56;;;;;;;;;;;20.20;45.00;;;;;;5085783;28;19925;-59
2023/05/28 07:46:22;;;;;;;;;;;20.20;45.20;;;;;;5091115;28;19946;-59
2023/05/28 07:48:49;;;;;;;;;;;20.20;45.30;;;;;;5087278;28;19956;-58
2023/05/28 07:51:17;;;;;;;;;;;20.20;45.30;;;;;;5090571;28;19935;-59
2023/05/28 07:53:44;;;;;;;;;;;20.20;45.20;;;;;;5089553;28;19920;-59
2023/05/28 07:56:11;;;;;;;;;;;20.20;45.20;;;;;;5107099;28;19962;-58
2023/05/28 07:58:38;;;;;;;;;;;20.20;45.10;;;;;;5106416;28;20023;-57
2023/05/28 08:01:08;;;;;;;;;;;20.20;45.00;;;;;;5098991;28;19942;-57
2023/05/28 08:03:36;;;;;;;;;;;20.20;45.20;;;;;;5103778;28;19985;-58
2023/05/28 08:06:03;;;;;;;;;;;20.20;45.10;;;;;;5086879;28;19973;-57
2023/05/28 08:08:30;;;;;;;;;;;20.20;45.10;;;;;;5089180;28;19920;-58
2023/05/28 08:10:57;;;;;;;;;;;20.20;45.20;;;;;;5086975;28;19920;-57
2023/05/28 08:13:24;;;;;;;;;;;20.20;45.30;;;;;;5088234;28;20368;-57
2023/05/28 08:15:51;;;;;;;;;;;20.20;45.20;;;;;;5088511;28;19932;-58
2023/05/28 08:18:19;;;;;;;;;;;20.30;45.30;;;;;;5088946;28;19969;-58
2023/05/28 08:20:46;;;;;;;;;;;20.20;45.30;;;;;;5088859;28;19970;-57
2023/05/28 08:23:13;;;;;;;;;;;20.30;45.20;;;;;;5089471;28;19963;-58
2023/05/28 08:25:40;;;;;;;;;;;20.30;45.20;;;;;;5088972;28;19924;-58
2023/05/28 08:28:09;;;;;;;;;;;20.30;45.30;;;;;;5088836;28;19920;-58
2023/05/28 08:30:36;;;;;;;;;;;20.30;45.30;;;;;;5088526;28;19920;-58
2023/05/28 08:33:03;;;;;;;;;;;20.30;45.20;;;;;;5088788;28;19973;-59
2023/05/28 08:35:31;;;;;;;;;;;20.30;45.40;;;;;;5106301;28;19920;-59
2023/05/28 08:37:58;;;;;;;;;;;20.20;45.40;;;;;;5089020;28;19995;-59
2023/05/28 08:40:25;;;;;;;;;;;20.30;45.60;;;;;;5084981;28;19920;-58
2023/05/28 08:42:52;;;;;;;;;;;20.30;45.50;;;;;;5089171;28;19920;-59
2023/05/28 08:45:19;;;;;;;;;;;20.30;45.40;;;;;;5085897;28;19927;-57
2023/05/28 08:47:46;;;;;;;;;;;20.30;45.40;;;;;;5090314;28;19924;-59
2023/05/28 08:50:12;;;;;;;;;;;20.30;45.40;;;;;;5090588;28;19962;-59
2023/05/28 08:52:41;;;;;;;;;;;20.30;45.30;;;;;;5106178;28;19928;-59
2023/05/28 08:55:08;;;;;;;;;;;20.30;45.30;;;;;;5103321;28;19924;-59
2023/05/28 08:57:35;;;;;;;;;;;20.30;45.40;;;;;;5105427;28;19920;-59
2023/05/28 09:00:05;;;;;;;;;;;20.30;45.70;;;;;;5088305;28;19920;-59
2023/05/28 09:02:32;;;;;;;;;;;20.30;45.80;;;;;;5090857;28;20433;-60
2023/05/28 09:05:03;;;;;;;;;;;20.30;45.80;;;;;;5088115;28;22114;-59
2023/05/28 09:07:30;;;;;;;;;;;20.30;45.70;;;;;;5105899;28;19958;-58
2023/05/28 09:09:58;;;;;;;;;;;20.30;46.30;;;;;;5086887;28;19920;-58
2023/05/28 09:12:25;;;;;;;;;;;20.20;45.80;;;;;;5105862;28;19920;-60
2023/05/28 09:14:52;;;;;;;;;;;20.30;45.80;;;;;;5102937;28;19927;-58
2023/05/28 09:17:22;;;;;;;;;;;20.20;45.70;;;;;;5088962;28;20035;-60
2023/05/28 09:19:52;;;;;;;;;;;20.20;45.90;;;;;;5104138;28;19920;-58
2023/05/28 09:22:20;;;;;;;;;;;20.20;45.80;;;;;;5090421;28;19928;-59
2023/05/28 09:24:49;;;;;;;;;;;20.20;45.90;;;;;;5088090;28;19925;-58
2023/05/28 09:27:19;;;;;;;;;;;20.20;45.90;;;;;;5104726;28;19969;-60
2023/05/28 09:29:46;;;;;;;;;;;20.20;45.90;;;;;;5102725;28;19920;-57
2023/05/28 09:32:13;;;;;;;;;;;20.20;45.80;;;;;;5103489;28;19970;-58
2023/05/28 09:34:42;;;;;;;;;;;20.20;45.80;;;;;;5098488;28;19969;-58
2023/05/28 09:37:09;;;;;;;;;;;20.20;45.90;;;;;;5104928;28;19927;-58
2023/05/28 09:39:35;;;;;;;;;;;20.20;45.80;;;;;;5098503;28;20049;-57
2023/05/28 09:42:04;;;;;;;;;;;20.20;45.70;;;;;;5104914;28;19920;-58
2023/05/28 09:44:32;;;;;;;;;;;20.20;45.70;;;;;;5083064;28;19987;-57
2023/05/28 09:46:59;;;;;;;;;;;20.20;45.70;;;;;;5088455;28;19920;-58
2023/05/28 09:49:28;;;;;;;;;;;20.20;45.80;;;;;;5098442;28;20326;-59
2023/05/28 09:51:55;;;;;;;;;;;20.20;45.70;;;;;;5089372;28;20424;-57
2023/05/28 09:54:22;;;;;;;;;;;20.20;45.60;;;;;;5093024;28;19931;-56
2023/05/28 09:56:48;;;;;;;;;;;20.20;45.60;;;;;;5092744;28;19924;-56
2023/05/28 09:59:15;;;;;;;;;;;20.20;45.60;;;;;;5091540;28;19924;-58
2023/05/28 10:01:47;;;;;;;;;;;20.20;45.50;;;;;;5085769;28;19921;-58
2023/05/28 10:04:15;;;;;;;;;;;20.20;45.50;;;;;;5089662;28;19920;-58
2023/05/28 10:06:41;;;;;;;;;;;20.20;45.40;;;;;;5107672;28;19939;-58
2023/05/28 10:09:08;;;;;;;;;;;20.20;45.40;;;;;;5108685;28;20289;-57
2023/05/28 10:11:36;;;;;;;;;;;20.20;45.30;;;;;;5092176;28;19985;-58
2023/05/28 10:14:03;;;;;;;;;;;20.30;45.40;;;;;;5104761;28;19927;-57
2023/05/28 10:16:30;;;;;;;;;;;20.30;45.50;;;;;;5091847;28;20136;-57
2023/05/28 10:18:58;;;;;;;;;;;20.30;45.40;;;;;;5096209;28;19970;-58
2023/05/28 10:21:26;;;;;;;;;;;20.30;45.30;;;;;;5087095;28;19924;-57
2023/05/28 10:23:53;;;;;;;;;;;20.30;45.10;;;;;;5099562;28;19977;-58
2023/05/28 10:26:21;;;;;;;;;;;20.30;45.10;;;;;;5091245;28;19920;-58
2023/05/28 10:28:53;;;;;;;;;;;20.30;45.10;;;;;;5084526;28;19932;-58
2023/05/28 10:31:21;;;;;;;;;;;20.30;45.10;;;;;;5108275;28;19924;-57
2023/05/28 10:33:48;;;;;;;;;;;20.30;45.00;;;;;;5089831;28;19920;-57
2023/05/28 10:36:17;;;;;;;;;;;20.30;44.80;;;;;;5089595;28;20354;-58
2023/05/28 10:38:45;;;;;;;;;;;20.30;44.80;;;;;;5092500;28;19924;-57
2023/05/28 10:41:11;;;;;;;;;;;20.30;44.70;;;;;;5107512;28;19920;-58
2023/05/28 10:43:42;;;;;;;;;;;20.30;44.70;;;;;;5088136;28;20022;-57
2023/05/28 10:46:09;;;;;;;;;;;20.30;44.70;;;;;;5086553;28;19986;-58
2023/05/28 10:48:38;;;;;;;;;;;20.30;44.70;;;;;;5106188;28;20358;-57
2023/05/28 10:51:05;;;;;;;;;;;20.30;44.70;;;;;;5091824;28;19931;-56
2023/05/28 10:53:33;;;;;;;;;;;20.30;44.60;;;;;;5104680;28;20014;-57
2023/05/28 10:56:01;;;;;;;;;;;20.30;44.30;;;;;;5090912;28;19935;-58
2023/05/28 10:58:29;;;;;;;;;;;20.30;44.00;;;;;;5105597;28;19963;-57
2023/05/28 11:01:04;;;;;;;;;;;20.30;43.80;;;;;;5087093;28;19920;-52
2023/05/28 11:03:38;;;;;;;;;;;20.30;43.70;;;;;;5110610;28;19920;-58
2023/05/28 11:06:05;;;;;;;;;;;20.30;43.60;;;;;;5095468;28;19924;-58
2023/05/28 11:08:34;;;;;;;;;;;20.30;43.60;;;;;;5092817;28;20281;-56
2023/05/28 11:11:00;;;;;;;;;;;20.30;43.70;;;;;;5112677;28;19927;-58
2023/05/28 11:13:27;;;;;;;;;;;20.30;43.70;;;;;;5102722;28;19924;-60
2023/05/28 11:15:54;;;;;;;;;;;20.30;43.70;;;;;;5100099;28;19924;-57
2023/05/28 11:18:21;;;;;;;;;;;20.30;43.80;;;;;;5108920;28;19927;-58
2023/05/28 11:20:48;;;;;;;;;;;20.30;43.80;;;;;;5106009;28;19927;-57
2023/05/28 11:23:15;;;;;;;;;;;20.30;43.90;;;;;;5107043;28;19927;-58
2023/05/28 11:25:45;;;;;;;;;;;20.30;44.00;;;;;;5099607;28;20061;-54
2023/05/28 11:28:12;;;;;;;;;;;20.30;44.00;;;;;;5107379;28;19981;-57
2023/05/28 11:30:38;;;;;;;;;;;20.30;43.90;;;;;;5091793;28;19950;-58
2023/05/28 11:33:05;;;;;;;;;;;20.30;43.80;;;;;;5093356;28;19950;-59
2023/05/28 11:35:32;;;;;;;;;;;20.40;44.00;;;;;;5093643;28;19920;-58
2023/05/28 11:38:00;;;;;;;;;;;20.40;44.10;;;;;;5099351;28;19921;-58
2023/05/28 11:40:33;;;;;;;;;;;20.40;44.10;;;;;;5092859;28;20602;-58
2023/05/28 11:43:01;;;;;;;;;;;20.40;43.90;;;;;;5102173;28;19991;-56
2023/05/28 11:45:28;;;;;;;;;;;20.40;43.70;;;;;;5092159;28;19920;-57
2023/05/28 11:47:55;;;;;;;;;;;20.40;43.60;;;;;;5091699;28;19920;-58
2023/05/28 11:50:22;;;;;;;;;;;20.40;43.50;;;;;;5093638;28;19924;-57
2023/05/28 11:52:48;;;;;;;;;;;20.40;43.30;;;;;;5091053;28;19920;-56
2023/05/28 11:55:15;;;;;;;;;;;20.40;43.40;;;;;;5106934;28;20374;-57
2023/05/28 11:57:51;;;;;;;;;;;20.40;43.50;;;;;;5090169;28;19934;-59
2023/05/28 12:00:20;;;;;;;;;;;20.40;43.40;;;;;;5104172;28;19935;-57
2023/05/28 12:02:47;;;;;;;;;;;20.40;43.30;;;;;;5101532;28;19920;-58
2023/05/28 12:05:13;;;;;;;;;;;20.40;43.50;;;;;;5090464;28;19935;-56
2023/05/28 12:07:45;;;;;;;;;;;20.50;43.60;;;;;;5087771;28;19920;-58
2023/05/28 12:10:12;;;;;;;;;;;20.50;43.60;;;;;;5089470;28;19924;-58
2023/05/28 12:12:40;;;;;;;;;;;20.50;43.50;;;;;;5106286;28;19924;-58
2023/05/28 12:15:07;;;;;;;;;;;20.50;43.60;;;;;;5106380;28;19920;-57
2023/05/28 12:17:38;;;;;;;;;;;20.50;43.60;;;;;;5089052;28;19991;-57
2023/05/28 12:20:07;;;;;;;;;;;20.50;43.60;;;;;;5092731;28;19924;-57
2023/05/28 12:22:34;;;;;;;;;;;20.50;43.40;;;;;;5103702;28;19920;-57
2023/05/28 12:25:01;;;;;;;;;;;20.50;43.40;;;;;;5089869;28;19920;-59
2023/05/28 12:27:28;;;;;;;;;;;20.50;43.50;;;;;;5108579;28;19920;-57
2023/05/28 12:29:55;;;;;;;;;;;20.50;43.50;;;;;;5081963;28;19949;-58
2023/05/28 12:32:22;;;;;;;;;;;20.50;43.40;;;;;;5105090;28;20024;-57
2023/05/28 12:34:51;;;;;;;;;;;20.50;43.50;;;;;;5084243;28;19920;-57
2023/05/28 12:37:18;;;;;;;;;;;20.50;43.50;;;;;;5087202;28;19920;-58
2023/05/28 12:39:45;;;;;;;;;;;20.50;43.50;;;;;;5088783;28;19924;-58
2023/05/28 12:42:12;;;;;;;;;;;20.50;43.40;;;;;;5106308;28;19926;-57
2023/05/28 12:44:38;;;;;;;;;;;20.50;43.40;;;;;;5089176;28;20441;-58
2023/05/28 12:47:05;;;;;;;;;;;20.50;43.40;;;;;;5082872;28;20351;-58
2023/05/28 12:49:32;;;;;;;;;;;20.50;43.10;;;;;;5090071;28;19923;-58
2023/05/28 12:52:00;;;;;;;;;;;20.50;43.00;;;;;;5091036;28;19927;-58
2023/05/28 12:54:28;;;;;;;;;;;20.50;43.00;;;;;;5087859;28;20397;-58
2023/05/28 12:56:55;;;;;;;;;;;20.50;43.00;;;;;;5087220;28;20323;-58
2023/05/28 12:59:22;;;;;;;;;;;20.50;43.00;;;;;;5087225;28;19932;-58
2023/05/28 13:01:49;;;;;;;;;;;20.50;42.90;;;;;;5104178;28;19980;-58
2023/05/28 13:04:16;;;;;;;;;;;20.50;42.90;;;;;;5084004;28;19924;-58
2023/05/28 13:06:43;;;;;;;;;;;20.50;42.80;;;;;;5102138;28;19927;-58
2023/05/28 13:09:12;;;;;;;;;;;20.50;42.90;;;;;;5088557;28;19924;-58
2023/05/28 13:11:39;;;;;;;;;;;20.50;43.00;;;;;;5086534;28;19963;-58
2023/05/28 13:14:06;;;;;;;;;;;20.50;43.10;;;;;;5102746;28;19928;-58
2023/05/28 13:16:33;;;;;;;;;;;20.50;43.20;;;;;;5100806;28;19928;-58
2023/05/28 13:19:01;;;;;;;;;;;20.50;43.00;;;;;;5088608;28;19927;-58
2023/05/28 13:21:28;;;;;;;;;;;20.50;42.70;;;;;;5083885;28;20026;-58
2023/05/28 13:23:55;;;;;;;;;;;20.50;42.60;;;;;;5102360;28;19924;-58
2023/05/28 13:26:23;;;;;;;;;;;20.50;42.60;;;;;;5086707;28;19920;-58
2023/05/28 13:28:50;;;;;;;;;;;20.50;42.80;;;;;;5100529;28;19928;-58
2023/05/28 13:31:17;;;;;;;;;;;20.50;42.90;;;;;;5087238;28;19920;-58
2023/05/28 13:33:44;;;;;;;;;;;20.50;43.00;;;;;;5100937;28;19924;-58
2023/05/28 13:36:10;;;;;;;;;;;20.50;43.00;;;;;;5085851;28;20350;-58
2023/05/28 13:38:37;;;;;;;;;;;20.60;43.10;;;;;;5088819;28;19978;-58
2023/05/28 13:41:04;;;;;;;;;;;20.50;43.00;;;;;;5085788;28;19921;-58
2023/05/28 13:43:32;;;;;;;;;;;20.60;43.00;;;;;;5101268;28;19920;-58
2023/05/28 13:45:59;;;;;;;;;;;20.60;42.90;;;;;;5085899;28;20007;-58
2023/05/28 13:48:26;;;;;;;;;;;20.60;43.00;;;;;;5101189;28;19955;-58
2023/05/28 13:50:53;;;;;;;;;;;20.60;43.00;;;;;;5087302;28;19924;-58
2023/05/28 13:53:19;;;;;;;;;;;20.60;42.90;;;;;;5087666;28;20434;-58
2023/05/28 13:55:47;;;;;;;;;;;20.60;42.50;;;;;;5089434;28;19924;-58
2023/05/28 13:58:13;;;;;;;;;;;20.60;42.20;;;;;;5103825;28;19920;-58
2023/05/28 14:00:42;;;;;;;;;;;20.60;42.30;;;;;;5089278;28;19989;-58
2023/05/28 14:03:13;;;;;;;;;;;20.60;42.30;;;;;;5103232;28;19973;-58
2023/05/28 14:05:40;;;;;;;;;;;20.60;41.90;;;;;;5104771;28;20389;-58
2023/05/28 14:08:07;;;;;;;;;;;20.60;41.80;;;;;;5103019;28;19920;-58
2023/05/28 14:10:34;;;;;;;;;;;20.60;42.00;;;;;;5088412;28;19978;-58
2023/05/28 14:13:01;;;;;;;;;;;20.60;42.10;;;;;;5079853;28;19920;-58
2023/05/28 14:15:27;;;;;;;;;;;20.60;42.10;;;;;;5100857;28;19977;-58
2023/05/28 14:17:56;;;;;;;;;;;20.60;42.20;;;;;;5079918;28;19920;-57